Vitsentzos Kornaros — SXNX — position and weather

sailwx.info

Track history (hours):
 
Tides and Currents Weather Stations Pressure Air Temp Water Temp Dewpoint Dewpoint Depression Visibility Wind Speed Wind Dir Waves Ship Positions

Vitsentzos Kornaros

Last reported at 2017-Jan-16 16:30 UTC. Time now 2017-Jan-17 19:17 UTC.
Position N 37°40' E 023°42'.

Length 128 m; draft 4.5 m.

Type: Passenger vessel. MMSI: 239311000.

Date/timePositionNaut miles runAvg speedWind from/ knotsBaromVisibWave heightAir tempDewpointWater temp
2017-Jan-16 16:30N 37°40' E 023°42'1313.5
2017-Jan-16 15:33N 37°52' E 023°37'5 4.4
2017-Jan-16 14:31N 37°56' E 023°37'0 0.0
2017-Jan-16 13:33N 37°56' E 023°37'0 0.0
2017-Jan-16 12:33N 37°56' E 023°37'0 0.0
2017-Jan-16 11:33N 37°56' E 023°37'0 0.0
2017-Jan-16 10:33N 37°56' E 023°37'0 0.0
2017-Jan-16 09:33N 37°56' E 023°37'0 0.0
2017-Jan-16 08:33N 37°56' E 023°37'0 0.0
2017-Jan-16 07:33N 37°56' E 023°37'0 0.0
2017-Jan-16 06:34N 37°56' E 023°37'0 0.0
2017-Jan-16 05:33N 37°56' E 023°37'1 1.5
2017-Jan-16 04:33N 37°55' E 023°37'1414.0
2017-Jan-16 03:33N 37°43' E 023°45'1312.8
2017-Jan-16 02:33N 37°30' E 023°41'1913.4
2017-Jan-16 01:07N 37°12' E 023°32'813.6
2017-Jan-16 00:33N 37°05' E 023°29'1613.8
2017-Jan-15 23:23N 36°50' E 023°23'10 0.2
2017-Jan-13 21:05N 36°59' E 023°26'611.6
2017-Jan-13 20:33N 37°05' E 023°29'1912.6
2017-Jan-13 19:04N 37°22' E 023°37'712.9
2017-Jan-13 18:33N 37°29' E 023°39'1312.6
2017-Jan-13 17:33N 37°41' E 023°41'1312.6
2017-Jan-13 16:33N 37°53' E 023°37'3 3.2
2017-Jan-13 15:33N 37°56' E 023°37'0 0.0
2017-Jan-13 14:33N 37°56' E 023°37'0 0.0
2017-Jan-13 13:33N 37°56' E 023°37'0 0.0
2017-Jan-13 12:33N 37°56' E 023°37'0 0.0
2017-Jan-13 11:34N 37°56' E 023°37'0 0.0
2017-Jan-13 10:33N 37°56' E 023°37'0 0.0
2017-Jan-13 09:33N 37°56' E 023°37'0 0.0
2017-Jan-13 08:33N 37°56' E 023°37'0 0.0
2017-Jan-13 07:33N 37°56' E 023°37'0 0.0
2017-Jan-13 06:33N 37°56' E 023°37'0 0.0
2017-Jan-13 05:33N 37°56' E 023°37'9 9.1
2017-Jan-13 04:33N 37°48' E 023°41'1212.4
2017-Jan-13 03:33N 37°36' E 023°44'1513.4
2017-Jan-13 02:28N 37°22' E 023°37'1213.0
2017-Jan-13 01:33N 37°11' E 023°32'1813.4
2017-Jan-13 00:13N 36°54' E 023°24'4 0.1
2017-Jan-10 21:30N 36°58' E 023°26'1314.0
2017-Jan-10 20:33N 37°10' E 023°32'1514.1
2017-Jan-10 19:32N 37°24' E 023°38'1414.2
2017-Jan-10 18:33N 37°38' E 023°42'1414.0
2017-Jan-10 17:33N 37°51' E 023°37'5 5.4
2017-Jan-10 16:34N 37°56' E 023°37'0 0.0
2017-Jan-10 15:34N 37°56' E 023°37'0 0.0
2017-Jan-10 14:33N 37°56' E 023°37'0 0.0
2017-Jan-10 13:34N 37°56' E 023°37'0 0.0
2017-Jan-10 12:34N 37°56' E 023°37'0 0.0
2017-Jan-10 11:33N 37°56' E 023°37'0 0.0
2017-Jan-10 10:33N 37°56' E 023°37'0 0.0
2017-Jan-10 09:33N 37°56' E 023°37'0 0.0
2017-Jan-10 08:33N 37°56' E 023°37'0 0.0
2017-Jan-10 07:34N 37°56' E 023°37'0 0.0
2017-Jan-10 06:33N 37°56' E 023°37'0 0.0
2017-Jan-10 05:33N 37°56' E 023°37'0 0.0
2017-Jan-10 04:33N 37°56' E 023°37'0 0.0
2017-Jan-10 03:33N 37°56' E 023°37'0 0.0
2017-Jan-10 02:33N 37°56' E 023°37'0 0.0
2017-Jan-10 01:34N 37°56' E 023°37'0 0.0
2017-Jan-10 00:34N 37°56' E 023°37'5 4.7
2017-Jan-09 23:34N 37°52' E 023°39'1413.6
2017-Jan-09 22:34N 37°40' E 023°46'  
2017-Jan-06 18:08N 37°34' E 023°47'814.7
2017-Jan-06 17:34N 37°42' E 023°41'1212.3
2017-Jan-06 16:33N 37°53' E 023°37'  
Track history (hours):
 
Tides and Currents Weather Stations Pressure Air Temp Water Temp Dewpoint Dewpoint Depression Visibility Wind Speed Wind Dir Waves Ship Positions

Vitsentzos Kornaros

Last reported at 2017-Jan-16 16:30 UTC. Time now 2017-Jan-17 19:17 UTC.
Position N 37°40' E 023°42'.

Length 128 m; draft 4.5 m.

Type: Passenger vessel. MMSI: 239311000.

Date/timePositionNaut miles runAvg speedWind from/ knotsBaromVisibWave heightAir tempDewpointWater temp
2017-Jan-16 16:30N 37°40' E 023°42'1313.5
2017-Jan-16 15:33N 37°52' E 023°37'5 4.4
2017-Jan-16 14:31N 37°56' E 023°37'0 0.0
2017-Jan-16 13:33N 37°56' E 023°37'0 0.0
2017-Jan-16 12:33N 37°56' E 023°37'0 0.0
2017-Jan-16 11:33N 37°56' E 023°37'0 0.0
2017-Jan-16 10:33N 37°56' E 023°37'0 0.0
2017-Jan-16 09:33N 37°56' E 023°37'0 0.0
2017-Jan-16 08:33N 37°56' E 023°37'0 0.0
2017-Jan-16 07:33N 37°56' E 023°37'0 0.0
2017-Jan-16 06:34N 37°56' E 023°37'0 0.0
2017-Jan-16 05:33N 37°56' E 023°37'1 1.5
2017-Jan-16 04:33N 37°55' E 023°37'1414.0
2017-Jan-16 03:33N 37°43' E 023°45'1312.8
2017-Jan-16 02:33N 37°30' E 023°41'1913.4
2017-Jan-16 01:07N 37°12' E 023°32'813.6
2017-Jan-16 00:33N 37°05' E 023°29'1613.8
2017-Jan-15 23:23N 36°50' E 023°23'10 0.2
2017-Jan-13 21:05N 36°59' E 023°26'611.6
2017-Jan-13 20:33N 37°05' E 023°29'1912.6
2017-Jan-13 19:04N 37°22' E 023°37'712.9
2017-Jan-13 18:33N 37°29' E 023°39'1312.6
2017-Jan-13 17:33N 37°41' E 023°41'1312.6
2017-Jan-13 16:33N 37°53' E 023°37'3 3.2
2017-Jan-13 15:33N 37°56' E 023°37'0 0.0
2017-Jan-13 14:33N 37°56' E 023°37'0 0.0
2017-Jan-13 13:33N 37°56' E 023°37'0 0.0
2017-Jan-13 12:33N 37°56' E 023°37'0 0.0
2017-Jan-13 11:34N 37°56' E 023°37'0 0.0
2017-Jan-13 10:33N 37°56' E 023°37'0 0.0
2017-Jan-13 09:33N 37°56' E 023°37'0 0.0
2017-Jan-13 08:33N 37°56' E 023°37'0 0.0
2017-Jan-13 07:33N 37°56' E 023°37'0 0.0
2017-Jan-13 06:33N 37°56' E 023°37'0 0.0
2017-Jan-13 05:33N 37°56' E 023°37'9 9.1
2017-Jan-13 04:33N 37°48' E 023°41'1212.4
2017-Jan-13 03:33N 37°36' E 023°44'1513.4
2017-Jan-13 02:28N 37°22' E 023°37'1213.0
2017-Jan-13 01:33N 37°11' E 023°32'1813.4
2017-Jan-13 00:13N 36°54' E 023°24'4 0.1
2017-Jan-10 21:30N 36°58' E 023°26'1314.0
2017-Jan-10 20:33N 37°10' E 023°32'1514.1
2017-Jan-10 19:32N 37°24' E 023°38'1414.2
2017-Jan-10 18:33N 37°38' E 023°42'1414.0
2017-Jan-10 17:33N 37°51' E 023°37'5 5.4
2017-Jan-10 16:34N 37°56' E 023°37'0 0.0
2017-Jan-10 15:34N 37°56' E 023°37'0 0.0
2017-Jan-10 14:33N 37°56' E 023°37'0 0.0
2017-Jan-10 13:34N 37°56' E 023°37'0 0.0
2017-Jan-10 12:34N 37°56' E 023°37'0 0.0
2017-Jan-10 11:33N 37°56' E 023°37'0 0.0
2017-Jan-10 10:33N 37°56' E 023°37'0 0.0
2017-Jan-10 09:33N 37°56' E 023°37'0 0.0
2017-Jan-10 08:33N 37°56' E 023°37'0 0.0
2017-Jan-10 07:34N 37°56' E 023°37'0 0.0
2017-Jan-10 06:33N 37°56' E 023°37'0 0.0
2017-Jan-10 05:33N 37°56' E 023°37'0 0.0
2017-Jan-10 04:33N 37°56' E 023°37'0 0.0
2017-Jan-10 03:33N 37°56' E 023°37'0 0.0
2017-Jan-10 02:33N 37°56' E 023°37'0 0.0
2017-Jan-10 01:34N 37°56' E 023°37'0 0.0
2017-Jan-10 00:34N 37°56' E 023°37'5 4.7
2017-Jan-09 23:34N 37°52' E 023°39'1413.6
2017-Jan-09 22:34N 37°40' E 023°46'  
2017-Jan-06 18:08N 37°34' E 023°47'814.7
2017-Jan-06 17:34N 37°42' E 023°41'1212.3
2017-Jan-06 16:33N 37°53' E 023°37'  

Dump ship's entire track history